sensor_id;sensor_type;location;lat;lon;timestamp;P1;durP1;ratioP1;P2;durP2;ratioP2
75793;SDS011;64418;47.536;19.074;2023-04-03T00:02:11;5.72;;;3.58;;
75793;SDS011;64418;47.536;19.074;2023-04-03T00:04:38;5.87;;;3.27;;
75793;SDS011;64418;47.536;19.074;2023-04-03T00:07:04;6.22;;;3.60;;
75793;SDS011;64418;47.536;19.074;2023-04-03T00:09:30;6.35;;;3.65;;
75793;SDS011;64418;47.536;19.074;2023-04-03T00:11:56;6.60;;;3.83;;
75793;SDS011;64418;47.536;19.074;2023-04-03T00:14:21;6.70;;;3.53;;
75793;SDS011;64418;47.536;19.074;2023-04-03T00:16:48;6.82;;;3.87;;
75793;SDS011;64418;47.536;19.074;2023-04-03T00:19:14;4.75;;;3.15;;
75793;SDS011;64418;47.536;19.074;2023-04-03T00:21:41;5.82;;;3.25;;
75793;SDS011;64418;47.536;19.074;2023-04-03T00:24:07;6.43;;;3.47;;
75793;SDS011;64418;47.536;19.074;2023-04-03T00:26:33;5.25;;;3.20;;
75793;SDS011;64418;47.536;19.074;2023-04-03T00:28:59;6.45;;;3.30;;
75793;SDS011;64418;47.536;19.074;2023-04-03T00:31:25;6.70;;;3.70;;
75793;SDS011;64418;47.536;19.074;2023-04-03T00:33:51;6.90;;;3.60;;
75793;SDS011;64418;47.536;19.074;2023-04-03T00:36:17;6.00;;;3.33;;
75793;SDS011;64418;47.536;19.074;2023-04-03T00:38:45;5.47;;;3.12;;
75793;SDS011;64418;47.536;19.074;2023-04-03T00:41:11;6.03;;;3.53;;
75793;SDS011;64418;47.536;19.074;2023-04-03T00:43:37;5.57;;;3.37;;
75793;SDS011;64418;47.536;19.074;2023-04-03T00:46:03;5.15;;;3.17;;
75793;SDS011;64418;47.536;19.074;2023-04-03T00:48:29;5.80;;;3.63;;
75793;SDS011;64418;47.536;19.074;2023-04-03T00:50:57;5.07;;;3.25;;
75793;SDS011;64418;47.536;19.074;2023-04-03T00:53:24;5.22;;;2.90;;
75793;SDS011;64418;47.536;19.074;2023-04-03T00:55:56;6.12;;;3.42;;
75793;SDS011;64418;47.536;19.074;2023-04-03T00:58:25;5.80;;;3.00;;
75793;SDS011;64418;47.536;19.074;2023-04-03T01:00:57;4.70;;;2.60;;
75793;SDS011;64418;47.536;19.074;2023-04-03T01:03:23;4.85;;;2.90;;
75793;SDS011;64418;47.536;19.074;2023-04-03T01:05:49;5.78;;;3.25;;
75793;SDS011;64418;47.536;19.074;2023-04-03T01:08:15;5.90;;;3.10;;
75793;SDS011;64418;47.536;19.074;2023-04-03T01:10:42;4.80;;;2.87;;
75793;SDS011;64418;47.536;19.074;2023-04-03T01:13:18;4.03;;;2.47;;
75793;SDS011;64418;47.536;19.074;2023-04-03T01:15:46;5.53;;;3.03;;
75793;SDS011;64418;47.536;19.074;2023-04-03T01:18:12;5.10;;;2.93;;
75793;SDS011;64418;47.536;19.074;2023-04-03T01:20:45;4.73;;;3.10;;
75793;SDS011;64418;47.536;19.074;2023-04-03T01:23:25;6.90;;;3.53;;
75793;SDS011;64418;47.536;19.074;2023-04-03T01:25:57;5.65;;;2.97;;
75793;SDS011;64418;47.536;19.074;2023-04-03T01:28:25;4.43;;;2.73;;
75793;SDS011;64418;47.536;19.074;2023-04-03T01:30:56;4.72;;;2.55;;
75793;SDS011;64418;47.536;19.074;2023-04-03T01:33:29;4.60;;;2.60;;
75793;SDS011;64418;47.536;19.074;2023-04-03T01:35:55;4.20;;;2.40;;
75793;SDS011;64418;47.536;19.074;2023-04-03T01:38:20;5.47;;;2.45;;
75793;SDS011;64418;47.536;19.074;2023-04-03T01:40:46;4.53;;;2.70;;
75793;SDS011;64418;47.536;19.074;2023-04-03T01:43:12;4.25;;;2.78;;
75793;SDS011;64418;47.536;19.074;2023-04-03T01:45:38;3.97;;;2.15;;
75793;SDS011;64418;47.536;19.074;2023-04-03T01:48:04;4.53;;;2.65;;
75793;SDS011;64418;47.536;19.074;2023-04-03T01:50:31;4.40;;;2.50;;
75793;SDS011;64418;47.536;19.074;2023-04-03T01:52:57;4.00;;;2.35;;
75793;SDS011;64418;47.536;19.074;2023-04-03T01:55:23;3.60;;;2.58;;
75793;SDS011;64418;47.536;19.074;2023-04-03T01:57:49;4.60;;;2.37;;
75793;SDS011;64418;47.536;19.074;2023-04-03T02:00:14;3.53;;;1.90;;
75793;SDS011;64418;47.536;19.074;2023-04-03T02:02:40;3.55;;;2.28;;
75793;SDS011;64418;47.536;19.074;2023-04-03T02:05:06;3.67;;;2.43;;
75793;SDS011;64418;47.536;19.074;2023-04-03T02:07:34;4.97;;;2.20;;
75793;SDS011;64418;47.536;19.074;2023-04-03T02:10:00;4.90;;;2.37;;
75793;SDS011;64418;47.536;19.074;2023-04-03T02:12:26;4.03;;;2.23;;
75793;SDS011;64418;47.536;19.074;2023-04-03T02:14:52;2.92;;;1.85;;
75793;SDS011;64418;47.536;19.074;2023-04-03T02:17:18;3.30;;;2.03;;
75793;SDS011;64418;47.536;19.074;2023-04-03T02:19:43;3.60;;;2.30;;
75793;SDS011;64418;47.536;19.074;2023-04-03T02:22:09;4.12;;;2.40;;
75793;SDS011;64418;47.536;19.074;2023-04-03T02:24:36;4.25;;;2.20;;
75793;SDS011;64418;47.536;19.074;2023-04-03T02:27:02;3.57;;;2.20;;
75793;SDS011;64418;47.536;19.074;2023-04-03T02:29:28;4.18;;;2.12;;
75793;SDS011;64418;47.536;19.074;2023-04-03T02:31:53;4.25;;;2.15;;
75793;SDS011;64418;47.536;19.074;2023-04-03T02:34:19;3.10;;;2.17;;
75793;SDS011;64418;47.536;19.074;2023-04-03T02:36:45;3.62;;;2.35;;
75793;SDS011;64418;47.536;19.074;2023-04-03T02:39:11;3.53;;;1.80;;
75793;SDS011;64418;47.536;19.074;2023-04-03T02:41:38;2.97;;;2.03;;
75793;SDS011;64418;47.536;19.074;2023-04-03T02:44:05;3.60;;;2.10;;
75793;SDS011;64418;47.536;19.074;2023-04-03T02:46:32;3.30;;;1.93;;
75793;SDS011;64418;47.536;19.074;2023-04-03T02:48:58;4.10;;;2.47;;
75793;SDS011;64418;47.536;19.074;2023-04-03T02:51:24;2.33;;;1.70;;
75793;SDS011;64418;47.536;19.074;2023-04-03T02:53:50;3.22;;;1.70;;
75793;SDS011;64418;47.536;19.074;2023-04-03T02:56:16;3.67;;;1.67;;
75793;SDS011;64418;47.536;19.074;2023-04-03T02:58:44;2.70;;;1.90;;
75793;SDS011;64418;47.536;19.074;2023-04-03T03:01:10;3.65;;;2.12;;
75793;SDS011;64418;47.536;19.074;2023-04-03T03:03:36;3.33;;;1.75;;
75793;SDS011;64418;47.536;19.074;2023-04-03T03:06:03;3.43;;;2.00;;
75793;SDS011;64418;47.536;19.074;2023-04-03T03:08:29;3.67;;;2.08;;
75793;SDS011;64418;47.536;19.074;2023-04-03T03:10:55;4.00;;;2.15;;
75793;SDS011;64418;47.536;19.074;2023-04-03T03:13:21;4.35;;;1.90;;
75793;SDS011;64418;47.536;19.074;2023-04-03T03:15:51;4.40;;;2.27;;
75793;SDS011;64418;47.536;19.074;2023-04-03T03:18:17;3.72;;;2.40;;
75793;SDS011;64418;47.536;19.074;2023-04-03T03:20:43;5.40;;;2.15;;
75793;SDS011;64418;47.536;19.074;2023-04-03T03:23:10;8.52;;;2.20;;
75793;SDS011;64418;47.536;19.074;2023-04-03T03:25:37;4.77;;;2.37;;
75793;SDS011;64418;47.536;19.074;2023-04-03T03:28:04;3.60;;;2.05;;
75793;SDS011;64418;47.536;19.074;2023-04-03T03:30:30;3.83;;;2.15;;
75793;SDS011;64418;47.536;19.074;2023-04-03T03:32:57;3.90;;;2.20;;
75793;SDS011;64418;47.536;19.074;2023-04-03T03:35:26;3.23;;;2.20;;
75793;SDS011;64418;47.536;19.074;2023-04-03T03:37:52;4.37;;;2.25;;
75793;SDS011;64418;47.536;19.074;2023-04-03T03:40:18;3.25;;;2.20;;
75793;SDS011;64418;47.536;19.074;2023-04-03T03:42:44;5.10;;;2.60;;
75793;SDS011;64418;47.536;19.074;2023-04-03T03:45:10;3.20;;;1.80;;
75793;SDS011;64418;47.536;19.074;2023-04-03T03:47:36;4.40;;;2.40;;
75793;SDS011;64418;47.536;19.074;2023-04-03T03:50:03;4.47;;;2.40;;
75793;SDS011;64418;47.536;19.074;2023-04-03T03:52:31;3.15;;;2.10;;
75793;SDS011;64418;47.536;19.074;2023-04-03T03:54:57;4.50;;;2.40;;
75793;SDS011;64418;47.536;19.074;2023-04-03T03:57:23;5.30;;;2.60;;
75793;SDS011;64418;47.536;19.074;2023-04-03T03:59:48;5.07;;;2.92;;
75793;SDS011;64418;47.536;19.074;2023-04-03T04:02:14;4.47;;;2.57;;
75793;SDS011;64418;47.536;19.074;2023-04-03T04:04:40;4.47;;;2.60;;
75793;SDS011;64418;47.536;19.074;2023-04-03T04:07:07;5.53;;;2.70;;
75793;SDS011;64418;47.536;19.074;2023-04-03T04:09:33;4.32;;;2.42;;
75793;SDS011;64418;47.536;19.074;2023-04-03T04:11:59;4.63;;;2.57;;
75793;SDS011;64418;47.536;19.074;2023-04-03T04:14:25;3.75;;;2.67;;
75793;SDS011;64418;47.536;19.074;2023-04-03T04:16:51;4.70;;;2.53;;
75793;SDS011;64418;47.536;19.074;2023-04-03T04:19:17;4.22;;;2.83;;
75793;SDS011;64418;47.536;19.074;2023-04-03T04:21:43;4.32;;;2.42;;
75793;SDS011;64418;47.536;19.074;2023-04-03T04:24:10;5.37;;;2.60;;
75793;SDS011;64418;47.536;19.074;2023-04-03T04:26:36;4.95;;;3.00;;
75793;SDS011;64418;47.536;19.074;2023-04-03T04:29:02;4.40;;;2.05;;
75793;SDS011;64418;47.536;19.074;2023-04-03T04:31:27;5.33;;;2.90;;
75793;SDS011;64418;47.536;19.074;2023-04-03T04:33:53;4.40;;;2.80;;
75793;SDS011;64418;47.536;19.074;2023-04-03T04:36:19;4.37;;;2.35;;
75793;SDS011;64418;47.536;19.074;2023-04-03T04:38:44;5.50;;;3.42;;
75793;SDS011;64418;47.536;19.074;2023-04-03T04:41:12;11.23;;;7.23;;
75793;SDS011;64418;47.536;19.074;2023-04-03T04:43:38;13.68;;;6.32;;
75793;SDS011;64418;47.536;19.074;2023-04-03T04:46:05;5.45;;;2.72;;
75793;SDS011;64418;47.536;19.074;2023-04-03T04:48:32;5.28;;;3.15;;
75793;SDS011;64418;47.536;19.074;2023-04-03T04:50:59;5.10;;;2.80;;
75793;SDS011;64418;47.536;19.074;2023-04-03T04:53:25;6.57;;;3.00;;
75793;SDS011;64418;47.536;19.074;2023-04-03T04:55:51;5.57;;;3.05;;
75793;SDS011;64418;47.536;19.074;2023-04-03T04:58:18;7.12;;;3.03;;
75793;SDS011;64418;47.536;19.074;2023-04-03T05:00:44;4.78;;;2.80;;
75793;SDS011;64418;47.536;19.074;2023-04-03T05:03:10;3.83;;;1.97;;
75793;SDS011;64418;47.536;19.074;2023-04-03T05:05:36;5.50;;;3.10;;
75793;SDS011;64418;47.536;19.074;2023-04-03T05:08:02;6.12;;;2.42;;
75793;SDS011;64418;47.536;19.074;2023-04-03T05:10:29;3.83;;;2.60;;
75793;SDS011;64418;47.536;19.074;2023-04-03T05:12:55;5.07;;;2.80;;
75793;SDS011;64418;47.536;19.074;2023-04-03T05:15:23;3.92;;;2.03;;
75793;SDS011;64418;47.536;19.074;2023-04-03T05:17:49;7.18;;;3.17;;
75793;SDS011;64418;47.536;19.074;2023-04-03T05:20:15;4.32;;;3.22;;
75793;SDS011;64418;47.536;19.074;2023-04-03T05:22:42;6.15;;;3.12;;
75793;SDS011;64418;47.536;19.074;2023-04-03T05:25:10;4.77;;;2.27;;
75793;SDS011;64418;47.536;19.074;2023-04-03T05:27:38;4.43;;;2.50;;
75793;SDS011;64418;47.536;19.074;2023-04-03T05:30:04;4.45;;;2.80;;
75793;SDS011;64418;47.536;19.074;2023-04-03T05:32:32;4.47;;;3.10;;
75793;SDS011;64418;47.536;19.074;2023-04-03T05:34:58;5.03;;;2.70;;
75793;SDS011;64418;47.536;19.074;2023-04-03T05:37:24;4.32;;;2.60;;
75793;SDS011;64418;47.536;19.074;2023-04-03T05:39:50;5.07;;;3.12;;
75793;SDS011;64418;47.536;19.074;2023-04-03T05:42:17;7.62;;;3.33;;
75793;SDS011;64418;47.536;19.074;2023-04-03T05:44:43;7.20;;;2.80;;
75793;SDS011;64418;47.536;19.074;2023-04-03T05:47:13;4.10;;;2.70;;
75793;SDS011;64418;47.536;19.074;2023-04-03T05:49:40;5.05;;;2.75;;
75793;SDS011;64418;47.536;19.074;2023-04-03T05:52:06;5.65;;;2.90;;
75793;SDS011;64418;47.536;19.074;2023-04-03T05:54:43;6.85;;;3.25;;
75793;SDS011;64418;47.536;19.074;2023-04-03T05:57:09;18.33;;;3.20;;
75793;SDS011;64418;47.536;19.074;2023-04-03T05:59:35;5.68;;;3.03;;
75793;SDS011;64418;47.536;19.074;2023-04-03T06:02:00;5.62;;;2.90;;
75793;SDS011;64418;47.536;19.074;2023-04-03T06:04:26;6.37;;;3.00;;
75793;SDS011;64418;47.536;19.074;2023-04-03T06:06:54;5.30;;;3.37;;
75793;SDS011;64418;47.536;19.074;2023-04-03T06:09:23;6.75;;;2.95;;
75793;SDS011;64418;47.536;19.074;2023-04-03T06:11:50;7.13;;;3.47;;
75793;SDS011;64418;47.536;19.074;2023-04-03T06:14:16;6.18;;;2.70;;
75793;SDS011;64418;47.536;19.074;2023-04-03T06:16:42;7.37;;;3.42;;
75793;SDS011;64418;47.536;19.074;2023-04-03T06:19:08;6.55;;;3.50;;
75793;SDS011;64418;47.536;19.074;2023-04-03T06:21:34;7.07;;;3.30;;
75793;SDS011;64418;47.536;19.074;2023-04-03T06:24:02;6.07;;;2.67;;
75793;SDS011;64418;47.536;19.074;2023-04-03T06:26:27;14.27;;;3.87;;
75793;SDS011;64418;47.536;19.074;2023-04-03T06:28:53;8.70;;;3.47;;
75793;SDS011;64418;47.536;19.074;2023-04-03T06:31:19;5.73;;;2.67;;
75793;SDS011;64418;47.536;19.074;2023-04-03T06:33:45;5.62;;;3.20;;
75793;SDS011;64418;47.536;19.074;2023-04-03T06:36:11;8.00;;;3.40;;
75793;SDS011;64418;47.536;19.074;2023-04-03T06:38:38;4.45;;;3.00;;
75793;SDS011;64418;47.536;19.074;2023-04-03T06:41:06;10.43;;;2.93;;
75793;SDS011;64418;47.536;19.074;2023-04-03T06:43:31;6.55;;;3.03;;
75793;SDS011;64418;47.536;19.074;2023-04-03T06:45:57;4.78;;;2.95;;
75793;SDS011;64418;47.536;19.074;2023-04-03T06:48:24;5.53;;;2.62;;
75793;SDS011;64418;47.536;19.074;2023-04-03T06:50:49;4.72;;;2.58;;
75793;SDS011;64418;47.536;19.074;2023-04-03T06:53:15;11.60;;;2.37;;
75793;SDS011;64418;47.536;19.074;2023-04-03T06:55:41;4.93;;;2.00;;
75793;SDS011;64418;47.536;19.074;2023-04-03T06:58:08;8.07;;;2.07;;
75793;SDS011;64418;47.536;19.074;2023-04-03T07:00:34;5.82;;;1.73;;
75793;SDS011;64418;47.536;19.074;2023-04-03T07:03:00;8.10;;;2.12;;
75793;SDS011;64418;47.536;19.074;2023-04-03T07:05:27;3.27;;;1.63;;
75793;SDS011;64418;47.536;19.074;2023-04-03T07:07:53;4.78;;;1.60;;
75793;SDS011;64418;47.536;19.074;2023-04-03T07:10:19;4.62;;;1.92;;
75793;SDS011;64418;47.536;19.074;2023-04-03T07:12:45;3.65;;;1.73;;
75793;SDS011;64418;47.536;19.074;2023-04-03T07:15:12;2.93;;;1.33;;
75793;SDS011;64418;47.536;19.074;2023-04-03T07:17:39;4.95;;;1.40;;
75793;SDS011;64418;47.536;19.074;2023-04-03T07:20:05;3.15;;;1.70;;
75793;SDS011;64418;47.536;19.074;2023-04-03T07:22:32;4.20;;;1.67;;
75793;SDS011;64418;47.536;19.074;2023-04-03T07:24:58;3.23;;;1.17;;
75793;SDS011;64418;47.536;19.074;2023-04-03T07:27:24;2.42;;;1.50;;
75793;SDS011;64418;47.536;19.074;2023-04-03T07:29:50;4.93;;;1.52;;
75793;SDS011;64418;47.536;19.074;2023-04-03T07:32:17;5.87;;;1.47;;
75793;SDS011;64418;47.536;19.074;2023-04-03T07:34:43;3.30;;;1.40;;
75793;SDS011;64418;47.536;19.074;2023-04-03T07:37:09;10.50;;;1.62;;
75793;SDS011;64418;47.536;19.074;2023-04-03T07:39:36;3.12;;;1.27;;
75793;SDS011;64418;47.536;19.074;2023-04-03T07:42:01;3.60;;;1.43;;
75793;SDS011;64418;47.536;19.074;2023-04-03T07:44:28;2.17;;;1.20;;
75793;SDS011;64418;47.536;19.074;2023-04-03T07:46:54;6.18;;;1.42;;
75793;SDS011;64418;47.536;19.074;2023-04-03T07:49:21;1.70;;;1.00;;
75793;SDS011;64418;47.536;19.074;2023-04-03T07:51:47;4.40;;;1.30;;
75793;SDS011;64418;47.536;19.074;2023-04-03T07:54:13;9.75;;;1.90;;
75793;SDS011;64418;47.536;19.074;2023-04-03T07:56:39;3.17;;;1.20;;
75793;SDS011;64418;47.536;19.074;2023-04-03T07:59:05;2.55;;;1.20;;
75793;SDS011;64418;47.536;19.074;2023-04-03T08:01:31;2.62;;;1.27;;
75793;SDS011;64418;47.536;19.074;2023-04-03T08:03:57;3.30;;;1.10;;
75793;SDS011;64418;47.536;19.074;2023-04-03T08:06:24;2.75;;;1.60;;
75793;SDS011;64418;47.536;19.074;2023-04-03T08:08:50;2.50;;;1.20;;
75793;SDS011;64418;47.536;19.074;2023-04-03T08:11:15;2.50;;;1.30;;
75793;SDS011;64418;47.536;19.074;2023-04-03T08:13:41;2.08;;;1.25;;
75793;SDS011;64418;47.536;19.074;2023-04-03T08:16:10;3.00;;;1.43;;
75793;SDS011;64418;47.536;19.074;2023-04-03T08:18:37;2.20;;;1.40;;
75793;SDS011;64418;47.536;19.074;2023-04-03T08:21:05;2.37;;;1.30;;
75793;SDS011;64418;47.536;19.074;2023-04-03T08:23:33;4.00;;;1.52;;
75793;SDS011;64418;47.536;19.074;2023-04-03T08:25:59;3.35;;;1.55;;
75793;SDS011;64418;47.536;19.074;2023-04-03T08:28:33;2.43;;;1.30;;
75793;SDS011;64418;47.536;19.074;2023-04-03T08:31:02;2.62;;;1.35;;
75793;SDS011;64418;47.536;19.074;2023-04-03T08:33:32;3.87;;;1.48;;
75793;SDS011;64418;47.536;19.074;2023-04-03T08:35:58;1.83;;;1.23;;
75793;SDS011;64418;47.536;19.074;2023-04-03T08:38:24;1.97;;;1.00;;
75793;SDS011;64418;47.536;19.074;2023-04-03T08:41:00;2.67;;;1.05;;
75793;SDS011;64418;47.536;19.074;2023-04-03T08:43:31;2.42;;;1.00;;
75793;SDS011;64418;47.536;19.074;2023-04-03T08:46:07;2.95;;;1.10;;
75793;SDS011;64418;47.536;19.074;2023-04-03T08:48:39;2.00;;;1.15;;
75793;SDS011;64418;47.536;19.074;2023-04-03T08:51:09;1.80;;;1.10;;
75793;SDS011;64418;47.536;19.074;2023-04-03T08:53:39;2.40;;;1.25;;
75793;SDS011;64418;47.536;19.074;2023-04-03T08:56:09;3.00;;;1.20;;
75793;SDS011;64418;47.536;19.074;2023-04-03T08:58:38;1.80;;;1.23;;
75793;SDS011;64418;47.536;19.074;2023-04-03T09:01:14;2.95;;;1.50;;
75793;SDS011;64418;47.536;19.074;2023-04-03T09:03:44;2.60;;;1.00;;
75793;SDS011;64418;47.536;19.074;2023-04-03T09:06:11;5.87;;;2.30;;
75793;SDS011;64418;47.536;19.074;2023-04-03T09:08:40;3.10;;;1.40;;
75793;SDS011;64418;47.536;19.074;2023-04-03T09:11:15;2.23;;;1.30;;
75793;SDS011;64418;47.536;19.074;2023-04-03T09:13:48;2.12;;;1.00;;
75793;SDS011;64418;47.536;19.074;2023-04-03T09:16:26;1.20;;;1.00;;
75793;SDS011;64418;47.536;19.074;2023-04-03T09:19:02;3.83;;;1.30;;
75793;SDS011;64418;47.536;19.074;2023-04-03T09:21:37;1.42;;;1.00;;
75793;SDS011;64418;47.536;19.074;2023-04-03T09:24:05;4.20;;;1.37;;
75793;SDS011;64418;47.536;19.074;2023-04-03T09:26:33;1.40;;;0.90;;
75793;SDS011;64418;47.536;19.074;2023-04-03T09:29:05;3.62;;;1.10;;
75793;SDS011;64418;47.536;19.074;2023-04-03T09:31:36;2.12;;;1.08;;
75793;SDS011;64418;47.536;19.074;2023-04-03T09:34:05;3.92;;;1.50;;
75793;SDS011;64418;47.536;19.074;2023-04-03T09:36:39;2.20;;;1.00;;
75793;SDS011;64418;47.536;19.074;2023-04-03T09:39:10;2.62;;;1.10;;
75793;SDS011;64418;47.536;19.074;2023-04-03T09:41:41;2.20;;;1.10;;
75793;SDS011;64418;47.536;19.074;2023-04-03T09:44:21;2.15;;;1.10;;
75793;SDS011;64418;47.536;19.074;2023-04-03T09:46:49;1.52;;;1.05;;
75793;SDS011;64418;47.536;19.074;2023-04-03T09:49:17;1.60;;;1.27;;
75793;SDS011;64418;47.536;19.074;2023-04-03T09:51:43;2.05;;;1.10;;
75793;SDS011;64418;47.536;19.074;2023-04-03T09:54:24;1.42;;;0.93;;
75793;SDS011;64418;47.536;19.074;2023-04-03T09:56:56;1.35;;;0.85;;
75793;SDS011;64418;47.536;19.074;2023-04-03T09:59:26;1.90;;;1.10;;
75793;SDS011;64418;47.536;19.074;2023-04-03T10:02:20;1.83;;;0.93;;
75793;SDS011;64418;47.536;19.074;2023-04-03T10:04:53;2.97;;;1.00;;
75793;SDS011;64418;47.536;19.074;2023-04-03T10:07:26;3.83;;;1.55;;
75793;SDS011;64418;47.536;19.074;2023-04-03T10:09:58;3.15;;;0.95;;
75793;SDS011;64418;47.536;19.074;2023-04-03T10:12:27;1.67;;;1.10;;
75793;SDS011;64418;47.536;19.074;2023-04-03T10:14:54;1.87;;;1.03;;
75793;SDS011;64418;47.536;19.074;2023-04-03T10:17:22;1.60;;;0.80;;
75793;SDS011;64418;47.536;19.074;2023-04-03T10:20:08;1.55;;;0.80;;
75793;SDS011;64418;47.536;19.074;2023-04-03T10:22:47;1.83;;;1.00;;
75793;SDS011;64418;47.536;19.074;2023-04-03T10:25:22;3.05;;;0.70;;
75793;SDS011;64418;47.536;19.074;2023-04-03T10:27:59;1.30;;;0.77;;
75793;SDS011;64418;47.536;19.074;2023-04-03T10:30:30;1.17;;;0.80;;
75793;SDS011;64418;47.536;19.074;2023-04-03T10:33:06;2.47;;;1.00;;
75793;SDS011;64418;47.536;19.074;2023-04-03T10:35:44;1.20;;;0.80;;
75793;SDS011;64418;47.536;19.074;2023-04-03T10:38:41;1.92;;;1.00;;
75793;SDS011;64418;47.536;19.074;2023-04-03T10:41:15;2.08;;;0.80;;
75793;SDS011;64418;47.536;19.074;2023-04-03T10:43:48;1.63;;;0.80;;
75793;SDS011;64418;47.536;19.074;2023-04-03T10:46:20;2.42;;;0.80;;
75793;SDS011;64418;47.536;19.074;2023-04-03T10:48:55;0.88;;;0.65;;
75793;SDS011;64418;47.536;19.074;2023-04-03T10:51:29;1.65;;;0.80;;
75793;SDS011;64418;47.536;19.074;2023-04-03T10:54:04;1.30;;;0.82;;
75793;SDS011;64418;47.536;19.074;2023-04-03T10:56:36;3.10;;;1.10;;
75793;SDS011;64418;47.536;19.074;2023-04-03T10:59:12;2.53;;;1.20;;
75793;SDS011;64418;47.536;19.074;2023-04-03T11:01:44;1.80;;;1.10;;
75793;SDS011;64418;47.536;19.074;2023-04-03T11:04:12;1.70;;;0.90;;
75793;SDS011;64418;47.536;19.074;2023-04-03T11:06:43;2.20;;;1.02;;
75793;SDS011;64418;47.536;19.074;2023-04-03T11:09:18;3.67;;;1.00;;
75793;SDS011;64418;47.536;19.074;2023-04-03T11:11:48;3.05;;;1.10;;
75793;SDS011;64418;47.536;19.074;2023-04-03T11:14:21;2.42;;;0.90;;
75793;SDS011;64418;47.536;19.074;2023-04-03T11:16:54;2.92;;;0.95;;
75793;SDS011;64418;47.536;19.074;2023-04-03T11:19:29;1.55;;;0.90;;
75793;SDS011;64418;47.536;19.074;2023-04-03T11:22:00;1.83;;;0.87;;
75793;SDS011;64418;47.536;19.074;2023-04-03T11:24:31;3.03;;;1.05;;
75793;SDS011;64418;47.536;19.074;2023-04-03T11:27:00;4.10;;;0.88;;
75793;SDS011;64418;47.536;19.074;2023-04-03T11:29:31;1.65;;;0.85;;
75793;SDS011;64418;47.536;19.074;2023-04-03T11:32:07;1.40;;;0.75;;
75793;SDS011;64418;47.536;19.074;2023-04-03T11:34:43;1.50;;;0.80;;
75793;SDS011;64418;47.536;19.074;2023-04-03T11:37:13;1.00;;;0.70;;
75793;SDS011;64418;47.536;19.074;2023-04-03T11:39:48;1.42;;;0.80;;
75793;SDS011;64418;47.536;19.074;2023-04-03T11:42:24;1.80;;;0.80;;
75793;SDS011;64418;47.536;19.074;2023-04-03T11:47:49;1.40;;;0.80;;
75793;SDS011;64418;47.536;19.074;2023-04-03T11:55:56;2.60;;;0.90;;
75793;SDS011;64418;47.536;19.074;2023-04-03T11:58:24;1.35;;;0.70;;
75793;SDS011;64418;47.536;19.074;2023-04-03T12:00:53;1.50;;;0.77;;
75793;SDS011;64418;47.536;19.074;2023-04-03T12:09:30;3.45;;;0.80;;
75793;SDS011;64418;47.536;19.074;2023-04-03T12:11:59;4.43;;;0.98;;
75793;SDS011;64418;47.536;19.074;2023-04-03T12:14:46;2.27;;;0.77;;
75793;SDS011;64418;47.536;19.074;2023-04-03T12:17:18;1.30;;;0.70;;
75793;SDS011;64418;47.536;19.074;2023-04-03T12:19:47;2.67;;;0.62;;
75793;SDS011;64418;47.536;19.074;2023-04-03T12:22:14;2.65;;;1.10;;
75793;SDS011;64418;47.536;19.074;2023-04-03T12:24:43;5.43;;;2.20;;
75793;SDS011;64418;47.536;19.074;2023-04-03T12:27:29;2.20;;;1.00;;
75793;SDS011;64418;47.536;19.074;2023-04-03T12:30:03;3.65;;;1.00;;
75793;SDS011;64418;47.536;19.074;2023-04-03T12:32:37;1.45;;;0.80;;
75793;SDS011;64418;47.536;19.074;2023-04-03T12:35:18;1.40;;;0.62;;
75793;SDS011;64418;47.536;19.074;2023-04-03T12:40:53;1.80;;;0.70;;
75793;SDS011;64418;47.536;19.074;2023-04-03T12:46:34;1.30;;;0.70;;
75793;SDS011;64418;47.536;19.074;2023-04-03T12:49:12;1.55;;;0.55;;
75793;SDS011;64418;47.536;19.074;2023-04-03T12:51:49;0.70;;;0.60;;
75793;SDS011;64418;47.536;19.074;2023-04-03T12:54:16;1.60;;;0.77;;
75793;SDS011;64418;47.536;19.074;2023-04-03T12:56:47;2.30;;;1.00;;
75793;SDS011;64418;47.536;19.074;2023-04-03T12:59:14;1.67;;;0.77;;
75793;SDS011;64418;47.536;19.074;2023-04-03T13:01:42;9.50;;;1.23;;
75793;SDS011;64418;47.536;19.074;2023-04-03T13:04:10;0.80;;;0.52;;
75793;SDS011;64418;47.536;19.074;2023-04-03T13:06:38;2.23;;;0.90;;
75793;SDS011;64418;47.536;19.074;2023-04-03T13:09:06;1.20;;;0.70;;
75793;SDS011;64418;47.536;19.074;2023-04-03T13:11:43;2.62;;;0.95;;
75793;SDS011;64418;47.536;19.074;2023-04-03T13:14:14;1.83;;;0.98;;
75793;SDS011;64418;47.536;19.074;2023-04-03T13:16:42;1.42;;;0.80;;
75793;SDS011;64418;47.536;19.074;2023-04-03T13:19:18;1.43;;;0.73;;
75793;SDS011;64418;47.536;19.074;2023-04-03T13:21:44;1.35;;;0.70;;
75793;SDS011;64418;47.536;19.074;2023-04-03T13:24:10;5.57;;;1.45;;
75793;SDS011;64418;47.536;19.074;2023-04-03T13:26:36;7.55;;;1.27;;
75793;SDS011;64418;47.536;19.074;2023-04-03T13:29:04;1.67;;;0.80;;
75793;SDS011;64418;47.536;19.074;2023-04-03T13:31:32;2.87;;;0.90;;
75793;SDS011;64418;47.536;19.074;2023-04-03T13:34:02;3.50;;;1.03;;
75793;SDS011;64418;47.536;19.074;2023-04-03T13:36:32;4.70;;;1.10;;
75793;SDS011;64418;47.536;19.074;2023-04-03T13:39:02;2.30;;;0.65;;
75793;SDS011;64418;47.536;19.074;2023-04-03T13:41:31;1.00;;;0.60;;
75793;SDS011;64418;47.536;19.074;2023-04-03T13:46:57;3.77;;;0.90;;
75793;SDS011;64418;47.536;19.074;2023-04-03T13:49:28;1.45;;;0.90;;
75793;SDS011;64418;47.536;19.074;2023-04-03T13:51:58;3.72;;;1.23;;
75793;SDS011;64418;47.536;19.074;2023-04-03T13:54:29;2.05;;;1.10;;
75793;SDS011;64418;47.536;19.074;2023-04-03T13:56:57;2.30;;;0.70;;
75793;SDS011;64418;47.536;19.074;2023-04-03T13:59:25;1.20;;;0.80;;
75793;SDS011;64418;47.536;19.074;2023-04-03T14:01:54;1.65;;;0.80;;
75793;SDS011;64418;47.536;19.074;2023-04-03T14:04:31;5.10;;;1.20;;
75793;SDS011;64418;47.536;19.074;2023-04-03T14:07:00;1.75;;;1.02;;
75793;SDS011;64418;47.536;19.074;2023-04-03T14:09:26;2.25;;;0.82;;
75793;SDS011;64418;47.536;19.074;2023-04-03T14:11:53;3.43;;;0.93;;
75793;SDS011;64418;47.536;19.074;2023-04-03T14:14:22;1.50;;;0.80;;
75793;SDS011;64418;47.536;19.074;2023-04-03T14:16:51;2.20;;;0.93;;
75793;SDS011;64418;47.536;19.074;2023-04-03T14:19:22;1.55;;;0.82;;
75793;SDS011;64418;47.536;19.074;2023-04-03T14:21:50;0.93;;;0.73;;
75793;SDS011;64418;47.536;19.074;2023-04-03T14:24:18;2.87;;;0.80;;
75793;SDS011;64418;47.536;19.074;2023-04-03T14:26:44;5.47;;;0.80;;
75793;SDS011;64418;47.536;19.074;2023-04-03T14:29:11;1.27;;;0.77;;
75793;SDS011;64418;47.536;19.074;2023-04-03T14:31:43;1.92;;;0.90;;
75793;SDS011;64418;47.536;19.074;2023-04-03T14:34:10;2.05;;;0.95;;
75793;SDS011;64418;47.536;19.074;2023-04-03T14:36:36;1.42;;;0.70;;
75793;SDS011;64418;47.536;19.074;2023-04-03T14:39:03;9.23;;;1.00;;
75793;SDS011;64418;47.536;19.074;2023-04-03T14:41:31;1.48;;;0.77;;
75793;SDS011;64418;47.536;19.074;2023-04-03T14:43:57;4.03;;;1.27;;
75793;SDS011;64418;47.536;19.074;2023-04-03T14:46:25;2.33;;;1.05;;
75793;SDS011;64418;47.536;19.074;2023-04-03T14:48:54;1.62;;;0.98;;
75793;SDS011;64418;47.536;19.074;2023-04-03T14:51:20;2.30;;;0.80;;
75793;SDS011;64418;47.536;19.074;2023-04-03T14:53:46;1.77;;;0.90;;
75793;SDS011;64418;47.536;19.074;2023-04-03T14:56:22;1.27;;;0.82;;
75793;SDS011;64418;47.536;19.074;2023-04-03T14:58:53;1.60;;;0.80;;
75793;SDS011;64418;47.536;19.074;2023-04-03T15:01:21;2.03;;;1.00;;
75793;SDS011;64418;47.536;19.074;2023-04-03T15:03:47;2.67;;;1.00;;
75793;SDS011;64418;47.536;19.074;2023-04-03T15:06:13;3.80;;;1.10;;